Time;durP1;ratioP1;P1;durP2;ratioP2;P2;SDS_P1;SDS_P2;PMS_P1;PMS_P2;Temp;Humidity;BMP_temperature;BMP_pressure;BME280_temperature;BME280_humidity;BME280_pressure;Samples;Min_cycle;Max_cycle;Signal;HPM_P1;HPM_P2
2024/03/15 00:00:35;;;;;;;2.85;1.90;;;;;;;6.49;100.00;97571.41;1224056;75;2918926;-65
2024/03/15 00:03:11;;;;;;;2.25;1.80;;;;;;;6.52;100.00;97565.84;1224262;75;2921517;-64
2024/03/15 00:05:44;;;;;;;2.15;1.65;;;;;;;6.34;100.00;97563.06;1224084;75;2936580;-62
2024/03/15 00:08:17;;;;;;;3.25;1.90;;;;;;;6.33;100.00;97562.31;1225331;75;2916026;-64
2024/03/15 00:10:49;;;;;;;2.30;1.80;;;;;;;6.35;100.00;97559.13;1224667;75;2923136;-64
2024/03/15 00:13:22;;;;;;;2.35;1.60;;;;;;;6.25;100.00;97560.31;1224259;75;2918073;-64
2024/03/15 00:15:55;;;;;;;2.25;1.60;;;;;;;6.25;100.00;97549.44;1222978;75;2932399;-64
2024/03/15 00:18:33;;;;;;;2.20;1.60;;;;;;;6.10;100.00;97552.72;1220087;75;3176926;-65
2024/03/15 00:21:07;;;;;;;2.60;1.80;;;;;;;6.14;100.00;97552.59;1225922;75;2917870;-63
2024/03/15 00:23:40;;;;;;;2.10;1.80;;;;;;;6.12;100.00;97560.44;1225686;75;2919313;-65
2024/03/15 00:26:13;;;;;;;3.20;2.45;;;;;;;5.77;100.00;97552.41;1224515;75;2922766;-64
2024/03/15 00:28:46;;;;;;;4.45;2.85;;;;;;;5.84;100.00;97556.81;1225083;75;2921942;-65
2024/03/15 00:31:19;;;;;;;4.40;3.30;;;;;;;5.68;100.00;97555.84;1223968;75;2952095;-66
2024/03/15 00:33:54;;;;;;;3.60;2.80;;;;;;;5.92;100.00;97558.06;1224116;75;2921124;-66
2024/03/15 00:36:30;;;;;;;3.25;2.40;;;;;;;5.74;100.00;97553.31;1224989;75;2926008;-64
2024/03/15 00:39:03;;;;;;;2.60;2.10;;;;;;;5.78;100.00;97561.31;1224179;75;2928967;-64
2024/03/15 00:41:36;;;;;;;3.90;2.10;;;;;;;5.83;100.00;97555.31;1225196;75;2919223;-65
2024/03/15 00:44:08;;;;;;;2.50;1.75;;;;;;;5.79;100.00;97551.97;1224892;75;2917415;-65
2024/03/15 00:46:41;;;;;;;2.85;1.85;;;;;;;5.74;100.00;97540.47;1222556;75;2919686;-65
2024/03/15 00:49:17;;;;;;;2.30;1.80;;;;;;;5.75;100.00;97538.53;1224697;75;2921113;-64
2024/03/15 00:51:49;;;;;;;2.70;1.70;;;;;;;5.70;100.00;97539.09;1224593;75;2911641;-64
2024/03/15 00:54:23;;;;;;;2.25;1.70;;;;;;;5.66;100.00;97531.09;1224247;75;2927500;-64
2024/03/15 00:56:56;;;;;;;1.55;1.45;;;;;;;5.65;100.00;97534.25;1225839;75;2909781;-65
2024/03/15 00:59:29;;;;;;;2.10;1.60;;;;;;;5.66;100.00;97524.91;1224990;75;2915664;-65
2024/03/15 01:02:01;;;;;;;2.40;1.75;;;;;;;5.73;100.00;97527.34;1224946;75;2921857;-64
2024/03/15 01:04:37;;;;;;;2.00;1.60;;;;;;;5.69;100.00;97529.44;1224319;67;2923617;-64
2024/03/15 01:07:10;;;;;;;1.80;1.50;;;;;;;5.66;100.00;97520.22;1226190;75;2921663;-64
2024/03/15 01:09:43;;;;;;;1.95;1.40;;;;;;;5.49;100.00;97516.97;1209675;75;4082187;-65
2024/03/15 01:12:17;;;;;;;2.00;1.50;;;;;;;5.15;100.00;97525.19;1226116;75;2914509;-64
2024/03/15 01:14:49;;;;;;;3.85;3.20;;;;;;;5.13;100.00;97510.13;1226023;75;2919380;-64
2024/03/15 01:17:22;;;;;;;3.15;2.50;;;;;;;5.33;100.00;97520.66;1224324;75;2924052;-64
2024/03/15 01:19:58;;;;;;;2.50;1.95;;;;;;;5.37;100.00;97509.66;1224998;75;2920654;-64
2024/03/15 01:22:32;;;;;;;2.05;1.70;;;;;;;5.40;100.00;97516.91;1225174;75;2924014;-63
2024/03/15 01:25:05;;;;;;;1.80;1.60;;;;;;;5.42;100.00;97516.47;1225413;75;2915506;-63
2024/03/15 01:27:37;;;;;;;2.20;1.60;;;;;;;5.39;100.00;97514.63;1225378;75;2918432;-65
2024/03/15 01:30:12;;;;;;;2.65;1.70;;;;;;;5.21;100.00;97512.59;1225348;75;2915184;-64
2024/03/15 01:32:45;;;;;;;2.65;1.90;;;;;;;5.28;100.00;97509.63;1225412;75;2930592;-64
2024/03/15 01:35:22;;;;;;;2.10;1.80;;;;;;;5.22;100.00;97504.00;1225740;75;2922288;-64
2024/03/15 01:37:55;;;;;;;2.35;1.70;;;;;;;5.15;100.00;97506.19;1224677;75;2917092;-64
2024/03/15 01:40:27;;;;;;;2.45;1.80;;;;;;;4.89;100.00;97500.91;1225554;75;2912737;-65
2024/03/15 01:43:01;;;;;;;2.55;1.80;;;;;;;5.05;100.00;97502.66;1225646;75;2921907;-63
2024/03/15 01:45:34;;;;;;;2.35;1.60;;;;;;;4.90;100.00;97500.47;1225355;75;2926837;-64
2024/03/15 01:48:07;;;;;;;2.25;1.90;;;;;;;4.87;100.00;97495.19;1225408;75;2912218;-65
2024/03/15 01:50:47;;;;;;;2.35;1.70;;;;;;;4.87;100.00;97495.19;1225159;75;2921343;-65
2024/03/15 01:53:20;;;;;;;2.60;1.80;;;;;;;4.73;100.00;97501.84;1225862;75;2919449;-64
2024/03/15 01:55:53;;;;;;;2.15;1.60;;;;;;;4.76;100.00;97500.19;1224687;75;2926114;-64
2024/03/15 01:58:26;;;;;;;2.30;1.85;;;;;;;4.76;100.00;97492.81;1225807;75;2917121;-64
2024/03/15 02:00:59;;;;;;;2.25;1.50;;;;;;;4.64;100.00;97499.84;1226000;75;2919309;-65
2024/03/15 02:03:32;;;;;;;2.85;1.70;;;;;;;4.54;100.00;97502.88;1225179;75;2918007;-68
2024/03/15 02:06:08;;;;;;;3.55;2.70;;;;;;;4.30;100.00;97499.81;1225597;75;2884353;-65
2024/03/15 02:08:41;;;;;;;3.80;2.75;;;;;;;4.46;100.00;97500.41;1225597;75;2937257;-63
2024/03/15 02:11:14;;;;;;;3.05;2.10;;;;;;;4.61;100.00;97495.25;1224248;75;2931799;-66
2024/03/15 02:13:46;;;;;;;2.50;2.10;;;;;;;4.51;100.00;97490.22;1225123;75;2918007;-67
2024/03/15 02:16:19;;;;;;;2.00;1.80;;;;;;;4.54;100.00;97492.03;1224429;75;2914956;-65
2024/03/15 02:18:52;;;;;;;2.20;1.80;;;;;;;4.48;100.00;97487.19;1224931;67;2922603;-63
2024/03/15 02:21:28;;;;;;;2.50;1.85;;;;;;;4.45;100.00;97482.66;1225180;75;2917547;-64
2024/03/15 02:24:01;;;;;;;1.70;1.60;;;;;;;4.31;100.00;97488.53;1225232;75;2919424;-65
2024/03/15 02:26:34;;;;;;;2.55;2.30;;;;;;;4.15;100.00;97475.13;1224825;75;2923397;-65
2024/03/15 02:29:06;;;;;;;3.10;2.30;;;;;;;4.33;100.00;97477.25;1225973;75;2918284;-63
2024/03/15 02:31:39;;;;;;;2.20;1.80;;;;;;;4.26;100.00;97481.72;1225358;75;2920641;-65
2024/03/15 02:34:14;;;;;;;2.60;2.00;;;;;;;4.25;100.00;97476.72;1225086;75;2850699;-64
2024/03/15 02:36:50;;;;;;;2.15;1.90;;;;;;;4.32;100.00;97473.78;1224919;75;2917240;-65
2024/03/15 02:39:24;;;;;;;2.60;2.20;;;;;;;4.11;100.00;97477.19;1224465;75;2922192;-63
2024/03/15 02:41:57;;;;;;;2.65;2.20;;;;;;;4.24;100.00;97483.34;1225294;75;2915167;-65
2024/03/15 02:44:30;;;;;;;2.30;1.90;;;;;;;4.16;100.00;97485.53;1225398;75;2920086;-64
2024/03/15 02:47:03;;;;;;;2.00;1.80;;;;;;;4.18;100.00;97482.38;1223653;75;2917844;-64
2024/03/15 02:49:36;;;;;;;2.05;1.85;;;;;;;4.17;100.00;97480.88;1225397;75;2919143;-65
2024/03/15 02:52:12;;;;;;;2.15;1.90;;;;;;;4.17;100.00;97472.75;1224477;75;2926683;-64
2024/03/15 02:54:45;;;;;;;2.55;1.90;;;;;;;4.18;100.00;97480.41;1224111;75;2922709;-64
2024/03/15 02:57:18;;;;;;;2.40;1.90;;;;;;;4.20;100.00;97488.88;1223867;75;2921757;-64
2024/03/15 02:59:51;;;;;;;2.00;1.80;;;;;;;4.11;100.00;97488.03;1224260;75;2924435;-63
2024/03/15 03:02:24;;;;;;;2.05;1.60;;;;;;;4.11;100.00;97488.78;1224046;75;2925155;-64
2024/03/15 03:04:57;;;;;;;1.90;1.50;;;;;;;4.01;100.00;97479.81;1224875;75;2919936;-64
2024/03/15 03:07:33;;;;;;;2.70;1.90;;;;;;;3.94;100.00;97477.31;1224280;75;2917682;-66
2024/03/15 03:10:06;;;;;;;3.30;2.40;;;;;;;3.80;100.00;97486.66;1225339;75;2922733;-64
2024/03/15 03:12:39;;;;;;;2.40;2.15;;;;;;;3.91;100.00;97485.56;1224516;67;2925970;-65
2024/03/15 03:15:12;;;;;;;3.45;2.90;;;;;;;3.70;100.00;97486.97;1224023;83;2924304;-65
2024/03/15 03:17:46;;;;;;;3.75;3.35;;;;;;;3.59;100.00;97488.06;1225485;75;2918294;-63
2024/03/15 03:20:21;;;;;;;4.05;2.90;;;;;;;3.68;100.00;97495.56;1224596;75;2917317;-65
2024/03/15 03:22:56;;;;;;;2.80;2.50;;;;;;;3.68;100.00;97492.84;1223790;75;2927790;-66
2024/03/15 03:25:31;;;;;;;3.00;2.35;;;;;;;3.77;100.00;97489.47;1223563;75;2924501;-64
2024/03/15 03:28:04;;;;;;;2.60;2.40;;;;;;;3.69;100.00;97497.06;1222447;75;2926436;-63
2024/03/15 03:30:37;;;;;;;2.25;1.90;;;;;;;3.59;100.00;97490.03;1224291;75;2919727;-65
2024/03/15 03:33:10;;;;;;;2.35;2.15;;;;;;;3.56;100.00;97488.16;1224702;75;2920438;-63
2024/03/15 03:35:43;;;;;;;2.65;2.25;;;;;;;3.53;100.00;97497.16;1224654;75;2922884;-65
2024/03/15 03:38:18;;;;;;;3.70;2.80;;;;;;;3.47;100.00;97490.78;1224696;75;2919695;-63
2024/03/15 03:40:51;;;;;;;2.80;2.30;;;;;;;3.61;100.00;97495.75;1223347;75;2925551;-62
2024/03/15 03:43:24;;;;;;;2.65;2.20;;;;;;;3.56;100.00;97491.66;1224454;75;2924475;-65
2024/03/15 03:45:57;;;;;;;2.35;1.80;;;;;;;3.49;100.00;97499.19;1225087;75;2923772;-63
2024/03/15 03:48:31;;;;;;;2.10;1.90;;;;;;;3.52;100.00;97498.34;1224502;75;2918085;-64
2024/03/15 03:51:04;;;;;;;1.95;1.75;;;;;;;3.56;100.00;97502.47;1224576;83;2922650;-65
2024/03/15 03:53:39;;;;;;;2.35;1.50;;;;;;;3.58;100.00;97496.59;1223867;83;2926055;-65
2024/03/15 03:56:13;;;;;;;2.20;1.75;;;;;;;3.56;100.00;97496.28;1223370;75;2939729;-65
2024/03/15 03:58:46;;;;;;;2.25;1.70;;;;;;;3.41;100.00;97491.28;1225687;75;2915281;-64
2024/03/15 04:01:19;;;;;;;2.00;1.60;;;;;;;3.50;100.00;97492.59;1225088;75;2928971;-65
2024/03/15 04:03:52;;;;;;;2.05;1.65;;;;;;;3.52;100.00;97495.66;1223708;75;2929961;-62
2024/03/15 04:06:25;;;;;;;1.85;1.70;;;;;;;3.52;100.00;97498.34;1223502;75;2927116;-63
2024/03/15 04:09:00;;;;;;;2.15;1.80;;;;;;;3.54;100.00;97499.44;1224162;75;2923844;-66
2024/03/15 04:11:33;;;;;;;2.25;1.60;;;;;;;3.49;100.00;97499.19;1223861;75;2923597;-63
2024/03/15 04:14:06;;;;;;;2.50;2.10;;;;;;;3.37;100.00;97504.19;1224520;67;2917490;-66
2024/03/15 04:16:39;;;;;;;2.70;2.10;;;;;;;3.27;100.00;97515.28;1223897;75;2920347;-65
2024/03/15 04:19:13;;;;;;;3.00;2.10;;;;;;;3.36;100.00;97496.47;1223498;75;2929137;-63
2024/03/15 04:21:46;;;;;;;3.05;2.20;;;;;;;3.40;100.00;97495.19;1224487;75;2923901;-63
2024/03/15 04:24:22;;;;;;;2.40;2.05;;;;;;;3.40;100.00;97503.31;1223747;75;2922795;-63
2024/03/15 04:26:55;;;;;;;2.80;2.35;;;;;;;3.39;100.00;97503.72;1224155;75;2928548;-63
2024/03/15 04:29:30;;;;;;;1.90;1.65;;;;;;;3.39;100.00;97504.50;1224567;75;2924707;-63
2024/03/15 04:32:03;;;;;;;2.05;1.70;;;;;;;3.35;100.00;97503.09;1223588;75;2921192;-64
2024/03/15 04:34:37;;;;;;;1.70;1.55;;;;;;;3.33;100.00;97508.16;1224377;75;2920912;-66
2024/03/15 04:37:11;;;;;;;2.55;2.10;;;;;;;3.22;100.00;97505.75;1224140;75;2930684;-66
2024/03/15 04:39:46;;;;;;;2.80;2.25;;;;;;;3.26;100.00;97509.13;1223458;75;2965134;-65
2024/03/15 04:42:19;;;;;;;1.90;1.55;;;;;;;3.32;100.00;97515.53;1223820;75;2925522;-64
2024/03/15 04:44:52;;;;;;;2.05;1.85;;;;;;;3.26;100.00;97513.78;1224101;75;2922088;-65
2024/03/15 04:47:26;;;;;;;2.05;1.85;;;;;;;3.29;100.00;97513.66;1223786;75;2935892;-65
2024/03/15 04:50:00;;;;;;;3.35;2.20;;;;;;;3.17;100.00;97509.00;1224749;75;2934177;-64
2024/03/15 04:52:33;;;;;;;2.95;1.90;;;;;;;3.23;100.00;97509.25;1223835;75;2945534;-68
2024/03/15 04:55:09;;;;;;;1.75;1.65;;;;;;;3.29;100.00;97510.22;1224091;75;2922350;-65
2024/03/15 04:57:42;;;;;;;2.20;1.50;;;;;;;3.35;100.00;97516.63;1222317;75;3014623;-64
2024/03/15 05:00:20;;;;;;;2.25;1.90;;;;;;;3.28;100.00;97517.56;1223629;75;2922374;-66
2024/03/15 05:02:53;;;;;;;3.00;2.10;;;;;;;3.32;100.00;97520.94;1223609;75;2926521;-64
2024/03/15 05:05:26;;;;;;;2.70;2.00;;;;;;;3.22;100.00;97516.56;1224423;75;2934427;-63
2024/03/15 05:07:59;;;;;;;3.20;2.55;;;;;;;3.28;100.00;97520.28;1223785;75;2944659;-64
2024/03/15 05:10:35;;;;;;;2.75;2.40;;;;;;;3.34;100.00;97515.88;1223296;75;2905431;-61
2024/03/15 05:13:08;;;;;;;3.20;2.10;;;;;;;3.40;100.00;97513.38;1210803;75;3906733;-64
2024/03/15 05:15:41;;;;;;;2.60;2.30;;;;;;;3.50;100.00;97525.84;1223764;75;2924547;-64
2024/03/15 05:18:14;;;;;;;3.10;2.30;;;;;;;3.62;100.00;97525.09;1224564;75;2920027;-62
2024/03/15 05:20:50;;;;;;;4.05;2.75;;;;;;;3.69;100.00;97517.97;1223489;75;2930627;-64
2024/03/15 05:23:23;;;;;;;4.65;3.45;;;;;;;3.63;100.00;97518.50;1222633;75;2927289;-64
2024/03/15 05:25:59;;;;;;;7.05;5.35;;;;;;;3.78;100.00;97524.25;1224809;75;2922302;-62
2024/03/15 05:28:32;;;;;;;7.75;5.00;;;;;;;3.66;100.00;97526.94;1224041;75;2927161;-65
2024/03/15 05:31:05;;;;;;;5.00;3.85;;;;;;;3.81;100.00;97530.75;1224284;75;2921360;-63
2024/03/15 05:33:38;;;;;;;5.60;4.20;;;;;;;3.89;100.00;97526.63;1224455;75;2930702;-64
2024/03/15 05:36:11;;;;;;;3.55;3.10;;;;;;;3.99;100.00;97535.59;1224515;75;2917979;-64
2024/03/15 05:38:44;;;;;;;3.15;2.65;;;;;;;4.04;100.00;97527.72;1224011;75;2921609;-64
2024/03/15 05:41:19;;;;;;;3.45;2.75;;;;;;;4.09;100.00;97529.13;1224480;75;2922140;-66
2024/03/15 05:43:52;;;;;;;3.20;2.85;;;;;;;4.17;100.00;97529.63;1224325;75;2930336;-64
2024/03/15 05:46:25;;;;;;;3.80;2.80;;;;;;;4.22;100.00;97527.13;1224637;75;2927351;-66
2024/03/15 05:48:58;;;;;;;5.10;4.25;;;;;;;4.17;100.00;97527.69;1223731;75;2880140;-63
2024/03/15 05:51:31;;;;;;;6.10;4.10;;;;;;;4.34;100.00;97541.84;1223358;75;2961135;-62
2024/03/15 05:54:04;;;;;;;5.55;3.60;;;;;;;4.40;100.00;97532.00;1224256;75;2930951;-66
2024/03/15 05:56:39;;;;;;;5.20;3.70;;;;;;;4.48;100.00;97540.66;1224086;75;2923506;-64
2024/03/15 05:59:13;;;;;;;4.45;3.40;;;;;;;4.41;100.00;97535.44;1224006;75;2923471;-63
2024/03/15 06:01:46;;;;;;;5.30;4.05;;;;;;;4.51;100.00;97536.31;1224565;75;2924027;-64
2024/03/15 06:04:19;;;;;;;5.00;3.60;;;;;;;4.65;100.00;97533.13;1224790;75;2928605;-64
2024/03/15 06:06:52;;;;;;;4.55;3.20;;;;;;;4.74;100.00;97538.63;1224597;75;2930882;-65
2024/03/15 06:09:24;;;;;;;3.80;3.25;;;;;;;4.81;100.00;97538.38;1223747;75;2932228;-63
2024/03/15 06:12:00;;;;;;;4.10;3.10;;;;;;;4.94;100.00;97543.00;1224180;75;2920155;-64
2024/03/15 06:14:33;;;;;;;4.85;3.05;;;;;;;4.94;100.00;97548.44;1222644;75;2936713;-65
2024/03/15 06:17:06;;;;;;;3.15;2.70;;;;;;;5.16;100.00;97551.91;1224805;75;2924345;-63
2024/03/15 06:19:39;;;;;;;2.50;2.30;;;;;;;5.22;100.00;97558.28;1224002;75;2921224;-66
2024/03/15 06:22:13;;;;;;;2.25;2.00;;;;;;;5.45;100.00;97556.31;1224051;75;2933192;-64
2024/03/15 06:24:46;;;;;;;2.35;2.05;;;;;;;5.51;100.00;97557.25;1225148;75;2919951;-64
2024/03/15 06:27:22;;;;;;;3.10;2.50;;;;;;;5.54;100.00;97561.81;1224826;67;2910706;-64
2024/03/15 06:29:55;;;;;;;4.80;3.30;;;;;;;5.66;100.00;97565.66;1224037;75;2918184;-64
2024/03/15 06:32:36;;;;;;;5.05;3.30;;;;;;;5.87;100.00;97573.00;1223445;75;2909828;-64
2024/03/15 06:35:20;;;;;;;4.55;3.25;;;;;;;6.15;100.00;97562.25;1223476;75;2926002;-64
2024/03/15 06:37:54;;;;;;;3.55;2.80;;;;;;;6.36;100.00;97574.25;1222881;75;2936731;-61
2024/03/15 06:40:43;;;;;;;4.85;3.35;;;;;;;6.47;100.00;97571.09;1223125;75;2918116;-64
2024/03/15 06:43:35;;;;;;;4.90;3.35;;;;;;;6.80;100.00;97568.59;1224102;75;2919101;-64
2024/03/15 06:46:19;;;;;;;5.15;3.15;;;;;;;6.85;100.00;97567.97;1224078;75;2920846;-64
2024/03/15 06:48:59;;;;;;;4.85;3.80;;;;;;;6.88;100.00;97569.81;1222733;75;2933714;-62
2024/03/15 06:54:17;;;;;;;5.25;3.90;;;;;;;7.37;100.00;97566.16;1223837;75;2923941;-63
2024/03/15 06:56:51;;;;;;;5.30;4.45;;;;;;;7.39;100.00;97577.34;1224573;75;2922858;-61
2024/03/15 06:59:27;;;;;;;4.65;3.60;;;;;;;7.57;100.00;97575.81;1223717;75;2926288;-64
2024/03/15 07:02:00;;;;;;;7.80;5.00;;;;;;;7.67;100.00;97569.13;1224581;75;2928432;-65
2024/03/15 07:04:33;;;;;;;6.40;4.50;;;;;;;7.67;100.00;97571.84;1222993;75;2929252;-65
2024/03/15 07:07:06;;;;;;;8.60;5.45;;;;;;;7.75;100.00;97575.78;1224593;75;2925228;-63
2024/03/15 07:09:40;;;;;;;6.95;5.55;;;;;;;7.46;100.00;97584.47;1223481;75;2939244;-64
2024/03/15 07:12:14;;;;;;;7.55;5.20;;;;;;;7.69;100.00;97572.91;1223545;75;2926226;-64
2024/03/15 07:14:50;;;;;;;6.50;4.95;;;;;;;7.84;100.00;97581.22;1224236;75;2924426;-64
2024/03/15 07:17:23;;;;;;;7.20;4.75;;;;;;;7.84;100.00;97578.47;1222630;75;2924678;-65
2024/03/15 07:19:57;;;;;;;5.65;4.00;;;;;;;8.32;100.00;97575.88;1224483;75;2920450;-64
2024/03/15 07:22:30;;;;;;;4.70;3.05;;;;;;;8.53;100.00;97581.53;1224127;75;2923115;-64
2024/03/15 07:25:05;;;;;;;3.70;2.90;;;;;;;8.57;100.00;97579.41;1223990;75;2918963;-65
2024/03/15 07:27:38;;;;;;;4.95;3.20;;;;;;;8.73;100.00;97586.41;1183868;75;5138562;-67
2024/03/15 07:30:14;;;;;;;6.50;4.40;;;;;;;8.52;100.00;97578.06;1218825;75;2948765;-63
2024/03/15 07:32:47;;;;;;;8.65;4.60;;;;;;;8.63;100.00;97580.25;1223318;75;2931448;-65
2024/03/15 07:35:19;;;;;;;6.95;4.70;;;;;;;8.53;100.00;97574.09;1223000;75;2957745;-64
2024/03/15 07:37:53;;;;;;;7.15;5.35;;;;;;;8.60;100.00;97583.91;1222824;75;2938787;-66
2024/03/15 07:40:26;;;;;;;9.60;5.55;;;;;;;8.48;100.00;97580.19;1224121;75;2930579;-64
2024/03/15 07:42:59;;;;;;;7.40;5.70;;;;;;;8.50;100.00;97596.13;1220779;75;3014939;-64
2024/03/15 07:45:35;;;;;;;7.35;5.55;;;;;;;8.96;100.00;97587.63;1223463;75;2930728;-64
2024/03/15 07:48:09;;;;;;;6.00;4.20;;;;;;;9.00;100.00;97590.19;1222885;75;2917222;-64
2024/03/15 07:50:42;;;;;;;7.25;4.75;;;;;;;9.30;100.00;97593.75;1223417;75;2939380;-63
2024/03/15 07:53:15;;;;;;;7.85;4.55;;;;;;;9.28;100.00;97590.72;1223280;75;2929444;-65
2024/03/15 07:55:48;;;;;;;7.85;5.20;;;;;;;9.34;100.00;97597.81;1222284;75;2922684;-65
2024/03/15 07:58:21;;;;;;;9.25;5.15;;;;;;;9.54;100.00;97594.44;1223623;75;2927408;-62
2024/03/15 08:00:57;;;;;;;8.90;5.20;;;;;;;9.76;100.00;97598.78;1223427;75;2930835;-65
2024/03/15 08:03:32;;;;;;;9.05;5.50;;;;;;;9.54;100.00;97602.63;1223496;75;2926553;-63
2024/03/15 08:06:05;;;;;;;8.20;5.40;;;;;;;9.86;100.00;97599.44;1224005;75;2932884;-65
2024/03/15 08:08:38;;;;;;;5.55;4.25;;;;;;;10.33;100.00;97589.50;1223419;75;2926658;-67
2024/03/15 08:11:11;;;;;;;6.05;4.20;;;;;;;10.65;100.00;97593.97;1221124;75;2922373;-65
2024/03/15 08:13:44;;;;;;;5.75;3.90;;;;;;;10.68;96.53;97592.25;1223697;75;2922759;-66
2024/03/15 08:16:23;;;;;;;8.55;5.40;;;;;;;10.58;97.28;97588.88;1197986;75;4988913;-66
2024/03/15 08:18:56;;;;;;;7.15;5.00;;;;;;;10.87;96.53;97601.69;1224146;75;2929667;-65
2024/03/15 08:21:29;;;;;;;8.75;5.05;;;;;;;11.77;90.29;97590.94;1223218;75;2928879;-66
2024/03/15 08:24:04;;;;;;;7.60;5.35;;;;;;;11.55;90.93;97588.75;1223976;75;2925698;-66
2024/03/15 08:26:39;;;;;;;12.15;5.65;;;;;;;11.30;91.08;97588.25;1225168;75;2920349;-64
2024/03/15 08:29:12;;;;;;;9.15;5.45;;;;;;;11.47;93.52;97591.16;1223751;75;2938182;-65
2024/03/15 08:31:48;;;;;;;5.95;4.45;;;;;;;11.75;87.75;97590.66;1224510;75;2926089;-64
2024/03/15 08:34:21;;;;;;;5.40;4.10;;;;;;;12.26;86.00;97586.34;1221773;75;2935942;-66
2024/03/15 08:36:56;;;;;;;7.60;5.15;;;;;;;12.17;85.05;97592.06;1223091;75;2926926;-64
2024/03/15 08:39:29;;;;;;;6.40;4.65;;;;;;;12.83;81.68;97586.69;1223511;75;2921587;-65
2024/03/15 08:42:02;;;;;;;6.60;4.50;;;;;;;12.93;77.81;97577.72;1222887;75;2935601;-66
2024/03/15 08:44:35;;;;;;;6.70;4.75;;;;;;;13.14;77.20;97583.81;1223851;75;2927343;-65
2024/03/15 08:47:10;;;;;;;7.45;5.10;;;;;;;13.54;75.26;97578.44;1219879;75;2926245;-64
2024/03/15 08:49:43;;;;;;;9.55;5.45;;;;;;;13.00;76.96;97573.78;1223786;75;2926967;-67
2024/03/15 08:52:16;;;;;;;10.60;6.30;;;;;;;12.49;79.88;97573.53;1224409;75;2937099;-65
2024/03/15 08:54:49;;;;;;;6.90;5.45;;;;;;;12.70;79.57;97574.16;1224823;75;2917683;-66
2024/03/15 08:57:22;;;;;;;7.35;5.00;;;;;;;12.72;79.20;97566.19;1223009;75;2925985;-66
2024/03/15 08:59:56;;;;;;;9.35;5.20;;;;;;;12.65;78.11;97565.88;1225153;75;2926207;-63
2024/03/15 09:02:31;;;;;;;9.70;6.25;;;;;;;12.79;76.46;97570.44;1225429;75;2930026;-64
2024/03/15 09:05:08;;;;;;;7.50;5.50;;;;;;;12.62;75.65;97572.34;1223965;75;2929615;-64
2024/03/15 09:07:42;;;;;;;8.70;5.50;;;;;;;12.62;75.62;97570.34;1223448;75;2925578;-65
2024/03/15 09:10:16;;;;;;;6.45;4.85;;;;;;;13.58;73.36;97565.94;1223500;75;2934243;-63
2024/03/15 09:12:49;;;;;;;7.70;5.60;;;;;;;13.61;70.71;97575.97;1224763;75;2920598;-64
2024/03/15 09:15:22;;;;;;;6.50;4.35;;;;;;;14.22;70.53;97573.72;1223554;67;2932117;-65
2024/03/15 09:17:59;;;;;;;6.35;4.00;;;;;;;14.57;68.05;97575.19;1223507;75;2923119;-65
2024/03/15 09:20:39;;;;;;;6.60;4.90;;;;;;;13.73;68.33;97570.47;1222884;75;2928227;-65
2024/03/15 09:23:12;;;;;;;8.60;5.50;;;;;;;14.42;67.65;97575.44;1223672;75;2924664;-64
2024/03/15 09:25:45;;;;;;;8.90;5.80;;;;;;;14.47;66.52;97569.16;1224479;75;2926459;-65
2024/03/15 09:28:18;;;;;;;6.10;4.70;;;;;;;15.18;65.99;97573.47;1224156;75;2920906;-64
2024/03/15 09:30:53;;;;;;;10.10;7.55;;;;;;;15.61;63.81;97564.66;1224376;75;2917625;-64
2024/03/15 09:33:34;;;;;;;7.05;5.15;;;;;;;15.97;61.37;97571.72;1222544;75;2922171;-63
2024/03/15 09:36:08;;;;;;;7.95;5.25;;;;;;;15.33;60.07;97566.34;1224240;75;2918807;-66
2024/03/15 09:38:41;;;;;;;8.45;5.20;;;;;;;15.11;62.97;97558.22;1223613;75;2943190;-64
2024/03/15 09:41:14;;;;;;;7.15;4.55;;;;;;;15.65;60.62;97570.66;1224123;75;2902252;-67
2024/03/15 09:43:48;;;;;;;6.00;4.45;;;;;;;16.47;59.92;97560.72;1224790;75;2920977;-64
2024/03/15 09:46:24;;;;;;;8.05;5.30;;;;;;;15.87;61.54;97561.50;1224865;75;2934729;-65
2024/03/15 09:49:02;;;;;;;5.90;4.45;;;;;;;16.64;60.11;97555.00;1216573;75;3336575;-66
2024/03/15 09:51:35;;;;;;;10.30;5.80;;;;;;;15.47;63.59;97558.25;1218323;75;3334614;-65
2024/03/15 09:54:10;;;;;;;6.60;5.10;;;;;;;16.61;61.07;97543.72;1224051;75;2927933;-66
2024/03/15 09:56:45;;;;;;;6.45;4.70;;;;;;;17.31;59.05;97545.16;1224886;75;2920938;-64
2024/03/15 09:59:30;;;;;;;5.20;4.05;;;;;;;17.79;57.36;97544.19;1224813;75;2919680;-67
2024/03/15 10:02:03;;;;;;;7.70;4.85;;;;;;;16.39;60.52;97549.50;1223042;75;2923628;-65
2024/03/15 10:04:39;;;;;;;7.45;4.75;;;;;;;17.88;56.12;97534.75;1187015;75;6031671;-64
2024/03/15 10:07:13;;;;;;;8.90;5.55;;;;;;;17.26;58.09;97541.19;1223334;75;2921157;-64
2024/03/15 10:09:49;;;;;;;6.65;4.50;;;;;;;18.41;56.53;97539.66;1223996;75;2920910;-67
2024/03/15 10:12:22;;;;;;;5.80;3.90;;;;;;;19.32;53.73;97526.22;1224045;75;2926021;-65
2024/03/15 10:14:55;;;;;;;5.55;4.45;;;;;;;18.45;55.41;97531.78;1220192;75;2957129;-65
2024/03/15 10:17:28;;;;;;;7.50;4.35;;;;;;;19.07;53.51;97528.53;1224071;75;2922071;-66
2024/03/15 10:20:06;;;;;;;5.60;3.75;;;;;;;19.28;53.11;97533.38;1224629;75;2925029;-64
2024/03/15 10:22:39;;;;;;;8.10;4.90;;;;;;;18.59;53.35;97533.25;1224116;75;2927328;-67
2024/03/15 10:25:16;;;;;;;6.20;4.50;;;;;;;18.65;54.58;97536.66;1224141;75;2933179;-66
2024/03/15 10:27:53;;;;;;;5.70;4.40;;;;;;;18.39;55.55;97517.25;1224027;75;2943958;-65
2024/03/15 10:30:29;;;;;;;7.40;4.45;;;;;;;17.80;57.01;97529.09;1224197;75;2932317;-68
2024/03/15 10:33:03;;;;;;;7.65;4.30;;;;;;;18.84;55.39;97519.94;1224351;75;2926466;-65
2024/03/15 10:35:38;;;;;;;5.90;4.10;;;;;;;18.15;56.58;97515.44;1224511;75;2934205;-66
2024/03/15 10:38:15;;;;;;;5.70;4.20;;;;;;;18.40;56.09;97515.97;1223136;75;2919456;-65
2024/03/15 10:40:48;;;;;;;6.70;4.70;;;;;;;17.01;56.47;97516.38;1223805;75;2921602;-67
2024/03/15 10:43:21;;;;;;;7.30;3.75;;;;;;;18.08;54.96;97514.75;1223823;75;2927716;-65
2024/03/15 10:45:54;;;;;;;5.15;3.90;;;;;;;18.53;53.01;97505.63;1223593;75;2931185;-66
2024/03/15 10:48:29;;;;;;;5.65;3.30;;;;;;;18.27;53.63;97506.38;1223926;75;2926987;-66
2024/03/15 10:51:07;;;;;;;6.55;3.40;;;;;;;19.50;52.87;97505.09;1223691;75;2941184;-67
2024/03/15 10:53:41;;;;;;;4.50;3.20;;;;;;;19.29;52.89;97505.09;1223237;75;2919264;-64
2024/03/15 10:56:14;;;;;;;5.20;4.25;;;;;;;18.54;54.07;97511.91;1223331;75;2926725;-67
2024/03/15 10:58:48;;;;;;;5.10;3.95;;;;;;;18.97;53.64;97513.59;1224330;75;2937691;-64
2024/03/15 11:01:23;;;;;;;4.95;3.05;;;;;;;19.94;51.25;97512.91;1224358;75;2933401;-64
2024/03/15 11:03:56;;;;;;;5.85;3.50;;;;;;;20.17;52.25;97505.50;1225052;75;2920017;-64
2024/03/15 11:06:48;;;;;;;5.70;3.95;;;;;;;19.47;50.98;97511.00;1223524;75;2920775;-65
2024/03/15 11:09:25;;;;;;;6.60;4.35;;;;;;;20.30;51.48;97503.91;1223642;75;2926089;-63
2024/03/15 11:12:05;;;;;;;9.70;4.20;;;;;;;19.01;52.66;97502.19;1225072;75;2924174;-68
2024/03/15 11:14:41;;;;;;;6.20;3.75;;;;;;;19.00;51.98;97495.91;1223743;75;2924395;-65
2024/03/15 11:17:21;;;;;;;5.45;4.10;;;;;;;18.53;53.81;97500.09;1223829;75;2928167;-67
2024/03/15 11:19:54;;;;;;;4.15;3.15;;;;;;;19.03;52.47;97503.16;1223790;75;2902962;-64
2024/03/15 11:22:33;;;;;;;5.10;3.35;;;;;;;19.29;51.81;97496.78;1223881;75;2922370;-68
2024/03/15 11:25:07;;;;;;;4.55;3.60;;;;;;;18.85;52.27;97498.47;1224524;75;2923296;-65
2024/03/15 11:27:59;;;;;;;5.90;3.50;;;;;;;18.77;52.96;97486.56;1224168;75;2935301;-68
2024/03/15 11:30:32;;;;;;;8.45;4.40;;;;;;;18.49;53.89;97485.06;1223039;75;2924831;-65
2024/03/15 11:33:07;;;;;;;5.35;4.05;;;;;;;19.55;52.10;97493.16;1222970;75;2927037;-65
2024/03/15 11:35:42;;;;;;;5.80;3.85;;;;;;;18.28;53.42;97493.28;1224050;75;2922422;-66
2024/03/15 11:38:20;;;;;;;5.25;3.40;;;;;;;19.69;51.03;97495.88;1223696;75;2928802;-65
2024/03/15 11:40:58;;;;;;;3.80;2.80;;;;;;;20.78;49.34;97499.59;1223838;75;2921482;-69
2024/03/15 11:43:32;;;;;;;4.70;3.10;;;;;;;20.72;49.97;97492.69;1220787;75;2922299;-65
2024/03/15 11:46:08;;;;;;;6.40;3.55;;;;;;;19.07;51.73;97480.59;1222410;75;2893606;-67
2024/03/15 11:48:41;;;;;;;4.65;3.20;;;;;;;20.01;50.29;97490.00;1222734;75;2938036;-67
2024/03/15 11:51:13;;;;;;;3.95;2.55;;;;;;;19.84;49.95;97484.13;1223836;75;2922621;-67